createdAt,value
2022-08-17T00:02:01.488Z,19.92
2022-08-17T00:04:58.463Z,21.08
2022-08-17T00:07:47.196Z,24.10
2022-08-17T00:10:36.872Z,21.90
2022-08-17T00:13:29.683Z,21.73
2022-08-17T00:16:50.371Z,20.40
2022-08-17T00:19:33.057Z,20.55
2022-08-17T00:22:31.864Z,21.85
2022-08-17T00:25:24.683Z,21.17
2022-08-17T00:28:15.163Z,34.60
2022-08-17T00:31:05.190Z,29.45
2022-08-17T00:33:55.607Z,26.98
2022-08-17T00:36:44.146Z,21.02
2022-08-17T00:39:36.668Z,20.63
2022-08-17T00:42:30.342Z,18.52
2022-08-17T00:45:20.528Z,21.55
2022-08-17T00:48:23.824Z,20.85
2022-08-17T00:51:31.917Z,22.50
2022-08-17T00:54:23.295Z,20.52
2022-08-17T00:57:16.603Z,19.13
2022-08-17T01:00:11.053Z,21.85
2022-08-17T01:03:06.443Z,21.80
2022-08-17T01:05:59.865Z,18.85
2022-08-17T01:08:57.612Z,22.52
2022-08-17T01:11:50.394Z,21.63
2022-08-17T01:14:40.361Z,17.63
2022-08-17T01:17:28.980Z,17.38
2022-08-17T01:20:17.694Z,22.23
2022-08-17T01:23:07.636Z,22.58
2022-08-17T01:25:59.735Z,22.17
2022-08-17T01:28:55.525Z,20.33
2022-08-17T01:31:48.372Z,22.40
2022-08-17T01:34:43.486Z,19.05
2022-08-17T01:37:41.840Z,22.55
2022-08-17T01:40:36.363Z,19.67
2022-08-17T01:43:29.430Z,19.83
2022-08-17T01:46:22.478Z,19.27
2022-08-17T01:49:12.889Z,25.55
2022-08-17T01:52:07.932Z,22.13
2022-08-17T01:54:57.457Z,18.77
2022-08-17T01:57:47.691Z,22.27
2022-08-17T02:00:47.265Z,20.55
2022-08-17T02:03:59.338Z,22.77
2022-08-17T02:06:53.225Z,20.40
2022-08-17T02:09:44.088Z,19.17
2022-08-17T02:12:41.165Z,18.55
2022-08-17T02:15:32.098Z,19.30
2022-08-17T02:18:25.847Z,20.40
2022-08-17T02:21:14.872Z,21.15
2022-08-17T02:24:04.605Z,17.73
2022-08-17T02:26:53.275Z,19.92
2022-08-17T02:29:41.937Z,20.13
2022-08-17T02:32:32.397Z,21.90
2022-08-17T02:35:22.765Z,21.05
2022-08-17T02:38:11.559Z,20.73
2022-08-17T02:41:00.593Z,18.52
2022-08-17T02:43:50.190Z,20.70
2022-08-17T02:46:39.060Z,18.33
2022-08-17T02:49:29.043Z,19.80
2022-08-17T02:52:17.720Z,20.52
2022-08-17T02:55:29.123Z,20.48
2022-08-17T02:58:18.871Z,18.55
2022-08-17T03:01:24.547Z,18.40
2022-08-17T03:04:13.547Z,21.42
2022-08-17T03:07:03.608Z,18.88
2022-08-17T03:09:54.063Z,19.27
2022-08-17T03:12:44.646Z,22.48
2022-08-17T03:15:35.616Z,20.33
2022-08-17T03:18:26.364Z,21.52
2022-08-17T03:21:15.153Z,21.00
2022-08-17T03:24:08.970Z,19.73
2022-08-17T03:26:57.846Z,20.88
2022-08-17T03:29:46.402Z,24.55
2022-08-17T03:32:40.130Z,22.85
2022-08-17T03:35:30.999Z,21.40
2022-08-17T03:38:19.968Z,19.75
2022-08-17T03:41:11.461Z,24.25
2022-08-17T03:44:00.232Z,20.55
2022-08-17T03:47:06.380Z,19.33
2022-08-17T03:50:12.552Z,19.08
2022-08-17T03:53:25.077Z,20.77
2022-08-17T03:56:32.410Z,21.50
2022-08-17T03:59:23.892Z,22.73
2022-08-17T04:02:18.910Z,24.65
2022-08-17T04:05:07.984Z,18.63
2022-08-17T04:07:57.772Z,20.27
2022-08-17T04:10:46.424Z,22.30
2022-08-17T04:13:36.323Z,21.15
2022-08-17T04:16:25.274Z,18.88
2022-08-17T04:19:17.534Z,21.08
2022-08-17T04:22:06.171Z,20.88
2022-08-17T04:24:54.881Z,21.02
2022-08-17T04:27:48.884Z,20.63
2022-08-17T04:30:40.451Z,23.05
2022-08-17T04:33:31.057Z,17.77
2022-08-17T04:36:19.635Z,18.60
2022-08-17T04:39:08.490Z,20.23
2022-08-17T04:42:09.396Z,20.13
2022-08-17T04:44:57.988Z,16.67
2022-08-17T04:47:48.237Z,20.20
2022-08-17T04:50:40.983Z,17.25
2022-08-17T04:53:29.702Z,16.67
2022-08-17T04:56:19.216Z,16.00
2022-08-17T04:59:15.499Z,17.08
2022-08-17T05:02:04.156Z,16.77
2022-08-17T05:04:54.238Z,17.02
2022-08-17T05:07:43.861Z,16.65
2022-08-17T05:10:35.692Z,16.55
2022-08-17T05:13:27.118Z,16.75
2022-08-17T05:16:15.675Z,22.02
2022-08-17T05:19:04.986Z,20.80
2022-08-17T05:21:54.974Z,16.23
2022-08-17T05:24:53.997Z,21.98
2022-08-17T05:27:44.477Z,19.02
2022-08-17T05:30:35.366Z,17.95
2022-08-17T05:33:25.711Z,18.17
2022-08-17T05:36:41.730Z,19.80
2022-08-17T05:39:29.584Z,19.90
2022-08-17T05:42:20.142Z,18.05
2022-08-17T05:45:09.999Z,15.98
2022-08-17T05:47:58.702Z,24.17
2022-08-17T05:50:54.588Z,17.33
2022-08-17T05:53:53.868Z,16.73
2022-08-17T05:57:00.633Z,20.15
2022-08-17T05:59:58.098Z,19.60
2022-08-17T06:03:00.050Z,15.88
2022-08-17T06:06:01.411Z,17.10
2022-08-17T06:08:54.573Z,14.50
2022-08-17T06:11:53.332Z,16.60
2022-08-17T06:15:01.312Z,17.10
2022-08-17T06:17:53.865Z,15.70
2022-08-17T06:20:50.114Z,17.27
2022-08-17T06:23:43.837Z,15.68
2022-08-17T06:26:39.685Z,19.63
2022-08-17T06:29:39.943Z,20.63
2022-08-17T06:32:29.579Z,18.65
2022-08-17T06:35:32.030Z,18.50
2022-08-17T06:38:37.711Z,15.88
2022-08-17T06:41:38.098Z,15.60
2022-08-17T06:44:42.243Z,12.43
2022-08-17T06:47:45.573Z,16.25
2022-08-17T06:50:38.598Z,15.10
2022-08-17T06:53:32.855Z,10.98
2022-08-17T06:56:53.071Z,12.75
2022-08-17T06:59:55.270Z,15.13
2022-08-17T07:02:54.363Z,15.35
2022-08-17T07:05:46.560Z,13.65
2022-08-17T07:08:45.764Z,15.27
2022-08-17T07:11:41.105Z,16.23
2022-08-17T07:14:37.725Z,13.07
2022-08-17T07:17:46.756Z,13.57
2022-08-17T07:20:39.061Z,17.08
2022-08-17T07:23:38.747Z,17.10
2022-08-17T07:26:27.700Z,16.10
2022-08-17T07:29:19.822Z,14.73
2022-08-17T07:32:11.008Z,12.20
2022-08-17T07:35:11.862Z,15.15
2022-08-17T07:38:24.691Z,13.20
2022-08-17T07:41:15.359Z,14.40
2022-08-17T07:44:04.224Z,14.85
2022-08-17T07:47:12.629Z,8.50
2022-08-17T07:50:01.605Z,12.07
2022-08-17T07:52:52.519Z,12.57
2022-08-17T07:55:41.985Z,11.95
2022-08-17T07:58:30.547Z,10.25
2022-08-17T08:01:19.412Z,11.60
2022-08-17T08:07:43.503Z,15.30
2022-08-17T08:10:38.609Z,13.60
2022-08-17T08:13:34.191Z,12.35
2022-08-17T08:16:27.275Z,11.57
2022-08-17T08:19:20.892Z,13.05
2022-08-17T08:22:17.185Z,12.10
2022-08-17T08:25:22.378Z,15.82
2022-08-17T08:28:24.426Z,13.73
2022-08-17T08:31:24.482Z,10.30
2022-08-17T08:34:58.998Z,12.52
2022-08-17T08:37:42.146Z,10.40
2022-08-17T08:40:45.765Z,15.13
2022-08-17T08:43:43.553Z,13.38
2022-08-17T08:46:42.654Z,9.32
2022-08-17T08:50:05.702Z,11.75
2022-08-17T08:53:19.027Z,10.68
2022-08-17T08:56:13.398Z,11.68
2022-08-17T08:59:12.747Z,9.23
2022-08-17T09:02:08.347Z,11.25
2022-08-17T09:05:14.438Z,9.60
2022-08-17T09:08:11.604Z,12.38
2022-08-17T09:11:06.608Z,9.70
2022-08-17T09:14:06.849Z,10.77
2022-08-17T09:17:16.415Z,10.27
2022-08-17T09:20:27.206Z,10.68
2022-08-17T09:23:28.237Z,11.65
2022-08-17T09:26:23.224Z,8.70
2022-08-17T09:29:16.805Z,12.88
2022-08-17T09:32:13.705Z,12.45
2022-08-17T09:35:19.681Z,8.38
2022-08-17T09:38:23.737Z,10.50
2022-08-17T09:41:17.764Z,10.32
2022-08-17T09:44:23.619Z,8.10
2022-08-17T09:47:21.425Z,13.30
2022-08-17T09:50:20.353Z,9.73
2022-08-17T09:53:32.079Z,12.05
2022-08-17T09:56:34.034Z,9.00
2022-08-17T09:59:38.725Z,9.50
2022-08-17T10:02:44.351Z,12.70
2022-08-17T10:05:40.849Z,10.10
2022-08-17T10:08:39.529Z,8.65
2022-08-17T10:11:54.844Z,12.93
2022-08-17T10:15:07.793Z,12.80
2022-08-17T10:18:17.544Z,12.10
2022-08-17T10:21:27.150Z,10.25
2022-08-17T10:24:39.191Z,10.52
2022-08-17T10:27:34.917Z,10.75
2022-08-17T10:30:26.825Z,9.77
2022-08-17T10:33:23.592Z,8.57
2022-08-17T10:36:18.862Z,14.73
2022-08-17T10:39:22.199Z,10.27
2022-08-17T10:42:30.141Z,11.95
2022-08-17T10:45:29.683Z,11.88
2022-08-17T10:48:40.860Z,11.85
2022-08-17T10:51:40.094Z,11.07
2022-08-17T10:54:49.902Z,10.70
2022-08-17T10:57:41.966Z,11.18
2022-08-17T11:01:12.762Z,10.02
2022-08-17T11:04:10.214Z,12.05
2022-08-17T11:07:12.825Z,9.25
2022-08-17T11:10:24.102Z,9.18
2022-08-17T11:13:26.767Z,10.32
2022-08-17T11:16:38.293Z,10.15
2022-08-17T11:19:47.318Z,14.38
2022-08-17T11:22:59.999Z,9.15
2022-08-17T11:25:53.115Z,11.40
2022-08-17T11:28:52.638Z,11.98
2022-08-17T11:31:44.583Z,8.23
2022-08-17T11:34:35.484Z,11.00
2022-08-17T11:37:49.795Z,16.85
2022-08-17T11:41:10.539Z,12.40
2022-08-17T11:44:17.074Z,10.05
2022-08-17T11:47:30.976Z,11.75
2022-08-17T11:50:45.284Z,11.20
2022-08-17T11:58:01.674Z,12.02
2022-08-17T12:00:57.702Z,13.35
2022-08-17T12:03:53.934Z,10.88
2022-08-17T12:06:54.659Z,10.48
2022-08-17T12:09:47.150Z,8.25
2022-08-17T12:12:36.573Z,10.13
2022-08-17T12:15:31.127Z,8.55
2022-08-17T12:18:24.733Z,10.23
2022-08-17T12:21:28.920Z,8.40
2022-08-17T12:24:36.594Z,11.30
2022-08-17T12:28:04.188Z,9.95
2022-08-17T12:30:40.666Z,8.93
2022-08-17T12:33:29.228Z,11.52
2022-08-17T12:36:21.743Z,11.20
2022-08-17T12:39:13.944Z,9.23
2022-08-17T12:42:04.964Z,8.73
2022-08-17T12:44:53.450Z,8.75
2022-08-17T12:47:42.529Z,10.85
2022-08-17T12:50:32.357Z,13.25
2022-08-17T12:53:27.317Z,11.93
2022-08-17T12:56:16.189Z,9.23
2022-08-17T12:59:07.308Z,10.27
2022-08-17T13:01:56.941Z,9.75
2022-08-17T13:04:46.322Z,8.80
2022-08-17T13:07:37.162Z,14.65
2022-08-17T13:10:32.737Z,11.98
2022-08-17T13:13:26.256Z,13.07
2022-08-17T13:16:20.400Z,14.18
2022-08-17T13:19:15.038Z,10.18
2022-08-17T13:22:04.263Z,11.15
2022-08-17T13:24:55.888Z,14.80
2022-08-17T13:27:44.793Z,12.00
2022-08-17T13:30:34.322Z,10.55
2022-08-17T13:33:45.002Z,17.35
2022-08-17T13:36:34.060Z,14.75
2022-08-17T13:39:25.582Z,10.10
2022-08-17T13:42:52.338Z,9.00
2022-08-17T13:45:52.416Z,12.45
2022-08-17T13:48:42.467Z,12.50
2022-08-17T13:51:35.387Z,12.40
2022-08-17T13:54:28.417Z,12.55
2022-08-17T13:57:22.991Z,10.35
2022-08-17T14:00:17.881Z,10.25
2022-08-17T14:03:07.535Z,12.88
2022-08-17T14:05:57.871Z,13.50
2022-08-17T14:08:46.510Z,17.42
2022-08-17T14:11:35.157Z,12.10
2022-08-17T14:14:27.680Z,11.15
2022-08-17T14:17:16.282Z,13.65
2022-08-17T14:20:05.922Z,12.63
2022-08-17T14:22:57.230Z,11.95
2022-08-17T14:25:47.008Z,11.30
2022-08-17T14:28:36.420Z,12.35
2022-08-17T14:31:27.681Z,13.60
2022-08-17T14:34:16.672Z,15.73
2022-08-17T14:37:05.211Z,14.02
2022-08-17T14:39:57.016Z,12.45
2022-08-17T14:42:46.432Z,14.02
2022-08-17T14:45:35.331Z,13.88
2022-08-17T14:48:23.957Z,14.02
2022-08-17T14:51:13.017Z,14.45
2022-08-17T14:54:01.586Z,10.95
2022-08-17T14:56:55.047Z,14.45
2022-08-17T15:00:00.226Z,14.18
2022-08-17T15:02:53.960Z,12.90
2022-08-17T15:05:44.212Z,12.05
2022-08-17T15:08:33.127Z,13.20
2022-08-17T15:11:21.752Z,14.27
2022-08-17T15:14:11.879Z,13.30
2022-08-17T15:17:00.489Z,13.90
2022-08-17T15:19:53.698Z,11.25
2022-08-17T15:22:43.748Z,15.63
2022-08-17T15:25:34.265Z,11.50
2022-08-17T15:28:23.146Z,11.77
2022-08-17T15:31:13.071Z,12.95
2022-08-17T15:34:01.657Z,16.45
2022-08-17T15:36:50.277Z,16.58
2022-08-17T15:39:38.841Z,13.98
2022-08-17T15:42:29.389Z,14.85
2022-08-17T15:45:24.965Z,10.02
2022-08-17T15:48:15.309Z,10.00
2022-08-17T15:51:04.032Z,13.93
2022-08-17T15:53:55.353Z,12.07
2022-08-17T15:56:44.032Z,9.93
2022-08-17T15:59:32.678Z,14.68
2022-08-17T16:03:13.942Z,11.68
2022-08-17T16:05:35.556Z,10.65
2022-08-17T16:08:24.312Z,14.95
2022-08-17T16:11:14.157Z,11.43
2022-08-17T16:14:02.697Z,13.57
2022-08-17T16:16:51.302Z,12.52
2022-08-17T16:19:41.266Z,14.20
2022-08-17T16:22:36.759Z,14.40
2022-08-17T16:25:52.062Z,12.70
2022-08-17T16:28:39.445Z,16.73
2022-08-17T16:31:29.062Z,11.55
2022-08-17T16:34:18.938Z,17.17
2022-08-17T16:37:07.479Z,14.00
2022-08-17T16:39:57.664Z,14.50
2022-08-17T16:42:48.479Z,15.10
2022-08-17T16:45:40.376Z,13.98
2022-08-17T16:48:30.322Z,16.20
2022-08-17T16:51:19.958Z,16.65
2022-08-17T16:54:09.316Z,14.40
2022-08-17T16:56:59.541Z,15.55
2022-08-17T16:59:50.352Z,15.18
2022-08-17T17:02:42.526Z,13.40
2022-08-17T17:05:44.747Z,15.20
2022-08-17T17:08:44.395Z,14.23
2022-08-17T17:11:38.160Z,17.23
2022-08-17T17:14:33.095Z,15.07
2022-08-17T17:17:27.741Z,18.85
2022-08-17T17:20:20.272Z,20.92
2022-08-17T17:23:15.687Z,17.98
2022-08-17T17:26:27.399Z,16.75
2022-08-17T17:29:25.822Z,20.85
2022-08-17T17:32:22.835Z,16.77
2022-08-17T17:35:17.092Z,17.00
2022-08-17T17:38:11.396Z,20.33
2022-08-17T17:41:05.951Z,20.83
2022-08-17T17:44:02.907Z,23.10
2022-08-17T17:46:55.596Z,19.02
2022-08-17T17:49:48.594Z,16.05
2022-08-17T17:52:53.443Z,16.92
2022-08-17T17:55:54.545Z,17.92
2022-08-17T17:58:51.207Z,13.60
2022-08-17T18:01:47.927Z,16.80
2022-08-17T18:04:44.795Z,15.95
2022-08-17T18:07:43.658Z,15.30
2022-08-17T18:10:44.982Z,19.00
2022-08-17T18:13:54.280Z,17.70
2022-08-17T18:16:44.251Z,26.63
2022-08-17T18:19:33.986Z,19.90
2022-08-17T18:22:25.048Z,20.80
2022-08-17T18:25:43.667Z,16.80
2022-08-17T18:28:39.113Z,18.92
2022-08-17T18:31:28.176Z,17.60
2022-08-17T18:34:45.945Z,23.20
2022-08-17T18:37:42.860Z,19.15
2022-08-17T18:40:36.233Z,17.08
2022-08-17T18:43:44.036Z,17.50
2022-08-17T18:46:38.609Z,23.15
2022-08-17T18:49:30.091Z,16.23
2022-08-17T18:52:24.426Z,19.80
2022-08-17T18:55:16.486Z,19.00
2022-08-17T18:58:17.243Z,17.48
2022-08-17T19:01:19.534Z,19.23
2022-08-17T19:04:16.588Z,17.75
2022-08-17T19:07:25.947Z,18.25
2022-08-17T19:10:22.441Z,18.75
2022-08-17T19:13:24.075Z,23.38
2022-08-17T19:16:20.070Z,22.77
2022-08-17T19:19:15.996Z,22.92
2022-08-17T19:22:14.690Z,20.00
2022-08-17T19:25:22.240Z,22.25
2022-08-17T19:28:22.419Z,19.38
2022-08-17T19:31:20.570Z,19.65
2022-08-17T19:34:09.648Z,19.67
2022-08-17T19:37:03.675Z,21.35
2022-08-17T19:40:00.213Z,18.30
2022-08-17T19:42:56.526Z,20.02
2022-08-17T19:45:53.616Z,24.02
2022-08-17T19:48:53.373Z,17.92
2022-08-17T19:51:52.039Z,22.08
2022-08-17T19:54:48.112Z,21.38
2022-08-17T19:57:45.146Z,21.35
2022-08-17T20:00:40.813Z,21.17
2022-08-17T20:03:36.330Z,24.17
2022-08-17T20:06:30.066Z,19.52
2022-08-17T20:09:29.737Z,26.25
2022-08-17T20:12:25.483Z,28.58
2022-08-17T20:15:21.470Z,24.23
2022-08-17T20:18:21.629Z,21.05
2022-08-17T20:21:20.017Z,18.73
2022-08-17T20:24:21.437Z,18.85
2022-08-17T20:27:16.552Z,25.42
2022-08-17T20:30:11.198Z,21.85
2022-08-17T20:33:01.224Z,20.73
2022-08-17T20:36:05.284Z,20.92
2022-08-17T20:38:57.102Z,22.63
2022-08-17T20:42:08.602Z,22.88
2022-08-17T20:44:58.960Z,21.83
2022-08-17T20:48:15.989Z,24.80
2022-08-17T20:51:13.092Z,20.58
2022-08-17T20:54:24.354Z,20.27
2022-08-17T20:57:42.648Z,22.40
2022-08-17T21:00:47.768Z,23.75
2022-08-17T21:03:51.893Z,22.08
2022-08-17T21:07:17.660Z,24.08
2022-08-17T21:10:16.380Z,25.33
2022-08-17T21:13:37.642Z,20.75
2022-08-17T21:16:37.780Z,22.60
2022-08-17T21:20:00.166Z,21.10
2022-08-17T21:23:05.323Z,25.00
2022-08-17T21:26:14.599Z,20.50
2022-08-17T21:29:30.210Z,22.27
2022-08-17T21:32:30.675Z,22.80
2022-08-17T21:35:28.616Z,22.77
2022-08-17T21:38:20.998Z,21.75
2022-08-17T21:41:21.090Z,24.40
2022-08-17T21:44:21.614Z,24.25
2022-08-17T21:47:19.323Z,23.98
2022-08-17T21:50:20.357Z,22.27
2022-08-17T21:53:13.258Z,20.45
2022-08-17T21:56:02.202Z,23.98
2022-08-17T21:58:58.414Z,20.55
2022-08-17T22:01:54.113Z,24.63
2022-08-17T22:04:43.764Z,22.00
2022-08-17T22:07:40.849Z,23.73
2022-08-17T22:10:33.024Z,25.50
2022-08-17T22:13:24.197Z,21.10
2022-08-17T22:16:28.811Z,21.95
2022-08-17T22:19:19.370Z,23.92
2022-08-17T22:22:10.944Z,24.67
2022-08-17T22:25:03.371Z,25.58
2022-08-17T22:27:55.671Z,20.35
2022-08-17T22:30:59.348Z,24.75
2022-08-17T22:33:50.193Z,22.23
2022-08-17T22:36:39.898Z,23.80
2022-08-17T22:39:41.823Z,22.58
2022-08-17T22:42:32.068Z,25.63
2022-08-17T22:45:20.982Z,19.45
2022-08-17T22:48:10.235Z,21.58
2022-08-17T22:51:13.570Z,20.65
2022-08-17T22:54:32.035Z,20.05
2022-08-17T22:57:52.844Z,25.20
2022-08-17T23:00:45.534Z,24.05
2022-08-17T23:03:34.149Z,26.65
2022-08-17T23:06:24.289Z,26.73
2022-08-17T23:09:13.041Z,26.27
2022-08-17T23:12:01.816Z,25.13
2022-08-17T23:14:51.576Z,23.98
2022-08-17T23:17:42.121Z,25.55
2022-08-17T23:20:31.114Z,24.90
2022-08-17T23:23:23.612Z,24.27
2022-08-17T23:26:13.003Z,24.80
2022-08-17T23:29:04.387Z,23.45
2022-08-17T23:31:53.503Z,27.63
2022-08-17T23:34:45.069Z,25.67
2022-08-17T23:37:33.805Z,26.20
2022-08-17T23:40:23.019Z,28.10
2022-08-17T23:43:23.894Z,25.85
2022-08-17T23:46:13.789Z,23.88
2022-08-17T23:49:03.343Z,23.38
2022-08-17T23:51:55.289Z,22.35
2022-08-17T23:54:46.692Z,26.85
2022-08-17T23:57:36.007Z,23.50
